createdAt,value
2022-08-11T00:02:18.245Z,70.41
2022-08-11T00:04:54.987Z,69.23
2022-08-11T00:07:45.850Z,68.70
2022-08-11T00:10:24.954Z,68.69
2022-08-11T00:13:07.896Z,69.25
2022-08-11T00:15:57.847Z,69.10
2022-08-11T00:18:51.495Z,69.71
2022-08-11T00:22:02.901Z,70.08
2022-08-11T00:24:25.917Z,70.21
2022-08-11T00:27:00.870Z,70.71
2022-08-11T00:29:51.608Z,72.05
2022-08-11T00:32:37.664Z,72.60
2022-08-11T00:35:52.469Z,72.24
2022-08-11T00:38:33.324Z,72.04
2022-08-11T00:41:10.342Z,71.07
2022-08-11T00:44:21.684Z,70.11
2022-08-11T00:47:35.675Z,69.60
2022-08-11T00:50:19.837Z,68.65
2022-08-11T00:53:19.372Z,68.08
2022-08-11T00:56:18.616Z,68.43
2022-08-11T00:59:35.371Z,68.07
2022-08-11T01:02:30.711Z,68.37
2022-08-11T01:05:40.954Z,68.00
2022-08-11T01:09:03.487Z,68.30
2022-08-11T01:12:17.926Z,68.08
2022-08-11T01:15:22.159Z,67.74
2022-08-11T01:18:20.040Z,68.67
2022-08-11T01:21:23.691Z,70.69
2022-08-11T01:24:30.361Z,71.94
2022-08-11T01:27:28.585Z,78.20
2022-08-11T01:30:40.660Z,80.32
2022-08-11T01:33:46.493Z,80.15
2022-08-11T01:36:57.319Z,77.81
2022-08-11T01:39:49.656Z,75.80
2022-08-11T01:43:14.849Z,75.31
2022-08-11T01:45:58.820Z,76.46
2022-08-11T01:50:06.424Z,76.20
2022-08-11T01:52:33.642Z,75.72
2022-08-11T01:55:32.887Z,75.43
2022-08-11T01:58:39.482Z,76.00
2022-08-11T02:01:40.884Z,76.11
2022-08-11T02:04:19.859Z,76.78
2022-08-11T02:07:15.453Z,77.38
2022-08-11T02:09:58.017Z,78.09
2022-08-11T02:13:02.945Z,78.92
2022-08-11T02:16:06.488Z,78.91
2022-08-11T02:19:14.523Z,78.70
2022-08-11T02:22:21.324Z,79.11
2022-08-11T02:25:20.434Z,79.76
2022-08-11T02:28:23.966Z,79.96
2022-08-11T02:32:23.930Z,80.46
2022-08-11T02:35:09.161Z,81.73
2022-08-11T02:38:06.425Z,83.38
2022-08-11T02:41:01.604Z,84.08
2022-08-11T02:44:05.763Z,85.06
2022-08-11T02:47:17.093Z,83.69
2022-08-11T02:50:32.837Z,84.61
2022-08-11T02:53:12.870Z,83.27
2022-08-11T02:56:00.846Z,82.71
2022-08-11T02:59:16.245Z,81.73
2022-08-11T03:02:04.585Z,81.98
2022-08-11T03:04:52.925Z,81.37
2022-08-11T03:08:22.379Z,81.55
2022-08-11T03:11:28.206Z,81.01
2022-08-11T03:14:35.407Z,81.86
2022-08-11T03:17:40.113Z,82.65
2022-08-11T03:20:24.954Z,83.12
2022-08-11T03:23:40.876Z,84.42
2022-08-11T03:26:42.738Z,85.33
2022-08-11T03:29:33.946Z,86.35
2022-08-11T03:32:31.563Z,86.97
2022-08-11T03:35:08.808Z,87.97
2022-08-11T03:38:14.440Z,88.92
2022-08-11T03:42:01.418Z,89.33
2022-08-11T03:45:15.086Z,89.21
2022-08-11T03:48:14.013Z,89.30
2022-08-11T03:51:44.819Z,90.05
2022-08-11T03:55:08.583Z,89.97
2022-08-11T03:58:07.596Z,88.42
2022-08-11T04:00:55.987Z,86.85
2022-08-11T04:04:00.733Z,85.20
2022-08-11T04:07:10.859Z,83.58
2022-08-11T04:10:22.994Z,82.74
2022-08-11T04:13:44.860Z,81.18
2022-08-11T04:16:28.790Z,79.49
2022-08-11T04:19:29.634Z,79.63
2022-08-11T04:22:27.549Z,79.33
2022-08-11T04:25:28.742Z,83.49
2022-08-11T04:28:29.147Z,84.94
2022-08-11T04:31:50.634Z,86.94
2022-08-11T04:34:55.893Z,90.19
2022-08-11T04:38:09.018Z,90.34
2022-08-11T04:41:01.479Z,89.89
2022-08-11T04:44:25.019Z,87.99
2022-08-11T04:48:04.451Z,88.03
2022-08-11T04:51:39.454Z,89.07
2022-08-11T04:54:58.454Z,89.69
2022-08-11T04:58:10.160Z,90.59
2022-08-11T05:01:37.268Z,90.40
2022-08-11T05:04:41.133Z,90.14
2022-08-11T05:07:49.454Z,90.09
2022-08-11T05:10:52.976Z,86.68
2022-08-11T05:14:10.651Z,82.48
2022-08-11T05:17:12.375Z,79.41
2022-08-11T05:20:08.418Z,77.23
2022-08-11T05:23:06.385Z,74.68
2022-08-11T05:26:43.778Z,74.61
2022-08-11T05:29:21.801Z,72.91
2022-08-11T05:32:35.690Z,71.90
2022-08-11T05:35:08.874Z,70.76
2022-08-11T05:38:16.651Z,69.00
2022-08-11T05:41:13.256Z,66.23
2022-08-11T05:44:20.216Z,64.70
2022-08-11T05:47:16.679Z,60.79
2022-08-11T05:50:15.301Z,59.86
2022-08-11T05:53:09.307Z,58.38
2022-08-11T05:56:08.040Z,57.10
2022-08-11T05:58:44.774Z,57.17
2022-08-11T06:01:34.276Z,56.36
2022-08-11T06:04:19.871Z,56.01
2022-08-11T06:07:10.568Z,54.50
2022-08-11T06:09:56.075Z,52.01
2022-08-11T06:12:43.573Z,51.15
2022-08-11T06:15:27.590Z,49.64
2022-08-11T06:18:08.760Z,47.86
2022-08-11T06:21:00.538Z,48.07
2022-08-11T06:23:43.869Z,46.97
2022-08-11T06:26:22.717Z,46.16
2022-08-11T06:29:11.134Z,46.55
2022-08-11T06:31:47.632Z,46.16
2022-08-11T06:34:27.665Z,47.08
2022-08-11T06:37:24.429Z,46.09
2022-08-11T06:40:27.406Z,46.51
2022-08-11T06:43:27.439Z,45.11
2022-08-11T06:46:12.898Z,44.18
2022-08-11T06:49:06.882Z,43.79
2022-08-11T06:52:04.406Z,42.56
2022-08-11T06:54:49.370Z,41.55
2022-08-11T06:57:56.641Z,41.40
2022-08-11T07:00:37.316Z,40.87
2022-08-11T07:03:15.820Z,39.94
2022-08-11T07:06:09.401Z,40.25
2022-08-11T07:09:35.697Z,40.01
2022-08-11T07:12:38.768Z,39.18
2022-08-11T07:16:10.892Z,39.47
2022-08-11T07:19:02.922Z,38.53
2022-08-11T07:22:03.741Z,37.81
2022-08-11T07:25:26.537Z,37.10
2022-08-11T07:28:30.288Z,37.61
2022-08-11T07:31:42.807Z,38.55
2022-08-11T07:34:34.522Z,36.10
2022-08-11T07:37:17.992Z,33.35
2022-08-11T07:39:54.168Z,33.77
2022-08-11T07:42:41.621Z,31.82
2022-08-11T07:45:34.357Z,32.42
2022-08-11T07:48:33.503Z,33.80
2022-08-11T07:51:25.450Z,32.67
2022-08-11T07:54:17.087Z,32.30
2022-08-11T07:56:55.116Z,32.01
2022-08-11T08:00:10.500Z,33.34
2022-08-11T08:03:08.804Z,32.61
2022-08-11T08:06:00.147Z,32.59
2022-08-11T08:08:55.800Z,32.62
2022-08-11T08:11:46.821Z,33.26
2022-08-11T08:14:42.867Z,32.04
2022-08-11T08:17:37.492Z,32.81
2022-08-11T08:20:10.273Z,31.73
2022-08-11T08:22:57.143Z,32.25
2022-08-11T08:25:39.017Z,32.27
2022-08-11T08:28:21.882Z,32.31
2022-08-11T08:30:52.957Z,32.31
2022-08-11T08:33:40.891Z,32.49
2022-08-11T08:36:18.692Z,32.61
2022-08-11T08:39:00.781Z,32.02
2022-08-11T08:41:50.908Z,32.42
2022-08-11T08:44:38.358Z,31.07
2022-08-11T08:47:42.913Z,30.43
2022-08-11T08:50:47.581Z,30.99
2022-08-11T08:53:52.497Z,31.14
2022-08-11T08:56:38.659Z,31.27
2022-08-11T08:59:16.489Z,30.36
2022-08-11T09:02:13.082Z,30.70
2022-08-11T09:04:52.333Z,32.05
2022-08-11T09:07:26.594Z,29.99
2022-08-11T09:10:08.251Z,30.90
2022-08-11T09:12:44.076Z,31.22
2022-08-11T09:15:27.303Z,31.42
2022-08-11T09:18:09.377Z,31.87
2022-08-11T09:20:47.017Z,32.12
2022-08-11T09:24:06.800Z,31.25
2022-08-11T09:27:03.033Z,31.35
2022-08-11T09:29:39.100Z,31.84
2022-08-11T09:32:15.461Z,31.64
2022-08-11T09:34:45.888Z,31.63
2022-08-11T09:37:55.542Z,31.09
2022-08-11T09:40:41.935Z,30.87
2022-08-11T09:43:39.461Z,29.80
2022-08-11T09:46:18.123Z,30.73
2022-08-11T09:49:02.241Z,31.32
2022-08-11T09:51:42.726Z,29.90
2022-08-11T09:54:48.202Z,29.95
2022-08-11T09:57:44.080Z,29.53
2022-08-11T10:00:24.677Z,29.49
2022-08-11T10:03:01.639Z,28.99
2022-08-11T10:05:57.377Z,29.45
2022-08-11T10:08:30.988Z,29.62
2022-08-11T10:11:09.445Z,29.67
2022-08-11T10:14:30.986Z,29.38
2022-08-11T10:17:08.053Z,28.95
2022-08-11T10:20:02.019Z,29.52
2022-08-11T10:22:59.692Z,29.95
2022-08-11T10:25:50.378Z,28.64
2022-08-11T10:28:55.607Z,28.70
2022-08-11T10:31:57.426Z,27.92
2022-08-11T10:34:31.797Z,28.39
2022-08-11T10:37:15.108Z,27.82
2022-08-11T10:39:55.592Z,27.54
2022-08-11T10:42:57.680Z,28.21
2022-08-11T10:45:48.480Z,29.21
2022-08-11T10:48:30.558Z,29.32
2022-08-11T10:51:49.962Z,29.13
2022-08-11T10:54:40.007Z,29.32
2022-08-11T10:57:31.564Z,29.41
2022-08-11T11:00:06.929Z,29.65
2022-08-11T11:02:41.931Z,29.42
2022-08-11T11:05:25.319Z,28.29
2022-08-11T11:08:27.006Z,29.17
2022-08-11T11:11:05.065Z,29.96
2022-08-11T11:13:53.180Z,30.28
2022-08-11T11:16:49.090Z,27.34
2022-08-11T11:19:36.608Z,27.24
2022-08-11T11:22:29.776Z,27.48
2022-08-11T11:25:23.488Z,27.51
2022-08-11T11:28:18.963Z,26.32
2022-08-11T11:30:57.697Z,27.68
2022-08-11T11:34:06.051Z,26.64
2022-08-11T11:37:04.274Z,26.11
2022-08-11T11:39:34.283Z,25.07
2022-08-11T11:42:10.662Z,25.31
2022-08-11T11:44:49.475Z,24.79
2022-08-11T11:47:22.684Z,26.50
2022-08-11T11:50:03.284Z,26.73
2022-08-11T11:52:44.202Z,26.93
2022-08-11T11:55:19.993Z,26.79
2022-08-11T11:58:08.615Z,28.10
2022-08-11T12:01:08.103Z,27.37
2022-08-11T12:03:44.944Z,27.44
2022-08-11T12:06:25.212Z,27.60
2022-08-11T12:09:04.471Z,28.01
2022-08-11T12:11:57.691Z,29.34
2022-08-11T12:14:32.948Z,29.04
2022-08-11T12:17:05.808Z,28.35
2022-08-11T12:19:48.634Z,29.19
2022-08-11T12:22:39.514Z,28.35
2022-08-11T12:25:30.651Z,29.12
2022-08-11T12:28:10.616Z,28.65
2022-08-11T12:30:44.090Z,28.25
2022-08-11T12:33:24.270Z,28.01
2022-08-11T12:36:09.534Z,27.29
2022-08-11T12:38:42.985Z,27.88
2022-08-11T12:41:33.838Z,28.01
2022-08-11T12:44:27.969Z,27.76
2022-08-11T12:47:17.684Z,28.80
2022-08-11T12:50:20.893Z,29.69
2022-08-11T12:53:01.299Z,29.60
2022-08-11T12:56:03.795Z,29.55
2022-08-11T12:58:52.662Z,29.96
2022-08-11T13:01:47.058Z,30.26
2022-08-11T13:04:38.527Z,29.82
2022-08-11T13:07:20.281Z,29.23
2022-08-11T13:10:01.707Z,28.78
2022-08-11T13:12:52.836Z,29.54
2022-08-11T13:15:23.193Z,29.51
2022-08-11T13:18:05.618Z,29.18
2022-08-11T13:20:44.936Z,29.49
2022-08-11T13:23:23.954Z,28.92
2022-08-11T13:26:08.130Z,28.63
2022-08-11T13:28:47.922Z,28.17
2022-08-11T13:31:25.309Z,28.84
2022-08-11T13:34:08.896Z,28.41
2022-08-11T13:36:43.125Z,28.02
2022-08-11T13:39:18.049Z,27.83
2022-08-11T13:41:53.272Z,28.74
2022-08-11T13:44:32.151Z,28.97
2022-08-11T13:47:09.894Z,28.29
2022-08-11T13:49:50.207Z,28.67
2022-08-11T13:52:31.102Z,29.20
2022-08-11T13:55:45.156Z,28.31
2022-08-11T13:58:19.784Z,30.20
2022-08-11T14:01:51.408Z,28.91
2022-08-11T14:04:30.516Z,29.60
2022-08-11T14:07:07.727Z,29.62
2022-08-11T14:09:48.023Z,30.93
2022-08-11T14:12:52.346Z,29.99
2022-08-11T14:15:56.989Z,30.42
2022-08-11T14:18:37.388Z,30.17
2022-08-11T14:21:31.483Z,30.76
2022-08-11T14:24:03.889Z,29.41
2022-08-11T14:26:39.130Z,29.48
2022-08-11T14:31:57.889Z,30.04
2022-08-11T14:34:34.567Z,29.37
2022-08-11T14:37:12.006Z,29.55
2022-08-11T14:39:56.381Z,29.68
2022-08-11T14:42:52.831Z,29.27
2022-08-11T14:45:57.581Z,28.99
2022-08-11T14:48:32.393Z,29.29
2022-08-11T14:51:11.146Z,29.75
2022-08-11T14:54:06.028Z,30.06
2022-08-11T14:56:44.085Z,30.42
2022-08-11T14:59:21.525Z,30.45
2022-08-11T15:02:14.426Z,30.36
2022-08-11T15:04:51.854Z,31.08
2022-08-11T15:07:32.731Z,30.14
2022-08-11T15:10:16.286Z,30.59
2022-08-11T15:12:51.842Z,30.74
2022-08-11T15:15:46.377Z,31.25
2022-08-11T15:18:21.037Z,30.23
2022-08-11T15:21:15.536Z,30.63
2022-08-11T15:24:00.929Z,30.90
2022-08-11T15:27:05.940Z,31.21
2022-08-11T15:29:54.703Z,30.67
2022-08-11T15:32:43.769Z,30.60
2022-08-11T15:35:39.503Z,31.21
2022-08-11T15:38:25.923Z,31.75
2022-08-11T15:41:17.815Z,32.24
2022-08-11T15:44:17.710Z,31.90
2022-08-11T15:46:55.407Z,31.26
2022-08-11T15:50:11.057Z,31.18
2022-08-11T15:52:51.011Z,32.02
2022-08-11T15:55:27.255Z,31.98
2022-08-11T15:58:20.710Z,31.77
2022-08-11T16:01:09.591Z,31.43
2022-08-11T16:04:08.137Z,31.61
2022-08-11T16:06:50.949Z,31.83
2022-08-11T16:09:46.876Z,30.78
2022-08-11T16:12:23.191Z,32.16
2022-08-11T16:15:19.994Z,31.86
2022-08-11T16:18:09.704Z,31.96
2022-08-11T16:20:46.291Z,32.73
2022-08-11T16:23:28.439Z,33.00
2022-08-11T16:27:11.775Z,33.75
2022-08-11T16:29:07.042Z,33.79
2022-08-11T16:31:43.789Z,33.97
2022-08-11T16:34:40.676Z,33.90
2022-08-11T16:37:28.816Z,34.14
2022-08-11T16:40:14.617Z,35.51
2022-08-11T16:43:10.095Z,36.42
2022-08-11T16:46:06.522Z,38.07
2022-08-11T16:48:38.839Z,39.67
2022-08-11T16:51:18.010Z,41.17
2022-08-11T16:54:03.722Z,42.59
2022-08-11T16:56:46.095Z,43.42
2022-08-11T16:59:24.995Z,43.62
2022-08-11T17:02:00.219Z,43.92
2022-08-11T17:05:07.687Z,44.19
2022-08-11T17:08:02.821Z,45.45
2022-08-11T17:11:06.622Z,45.86
2022-08-11T17:13:53.511Z,45.89
2022-08-11T17:16:45.936Z,45.69
2022-08-11T17:20:42.361Z,45.09
2022-08-11T17:22:35.332Z,44.96
2022-08-11T17:25:14.919Z,44.71
2022-08-11T17:27:56.983Z,44.95
2022-08-11T17:30:54.550Z,44.86
2022-08-11T17:33:43.946Z,44.74
2022-08-11T17:36:24.228Z,44.21
2022-08-11T17:39:19.838Z,44.20
2022-08-11T17:42:13.379Z,44.03
2022-08-11T17:45:07.936Z,44.03
2022-08-11T17:48:00.115Z,43.44
2022-08-11T17:50:41.669Z,43.12
2022-08-11T17:53:31.540Z,43.14
2022-08-11T17:56:21.408Z,42.34
2022-08-11T17:59:11.865Z,42.72
2022-08-11T18:01:54.873Z,42.64
2022-08-11T18:04:32.722Z,41.97
2022-08-11T18:07:23.417Z,42.67
2022-08-11T18:10:17.329Z,42.53
2022-08-11T18:13:09.933Z,42.87
2022-08-11T18:16:04.419Z,42.31
2022-08-11T18:19:03.365Z,42.70
2022-08-11T18:22:13.064Z,42.65
2022-08-11T18:25:08.832Z,43.43
2022-08-11T18:28:01.755Z,43.74
2022-08-11T18:31:04.035Z,44.60
2022-08-11T18:34:07.878Z,44.72
2022-08-11T18:37:01.138Z,45.50
2022-08-11T18:39:56.216Z,46.14
2022-08-11T18:42:46.404Z,46.34
2022-08-11T18:45:45.580Z,46.27
2022-08-11T18:48:40.580Z,46.94
2022-08-11T18:51:36.959Z,46.59
2022-08-11T18:54:28.945Z,46.97
2022-08-11T18:57:20.954Z,47.35
2022-08-11T19:00:07.577Z,47.24
2022-08-11T19:02:59.366Z,47.69
2022-08-11T19:06:32.467Z,47.89
2022-08-11T19:09:20.653Z,48.46
2022-08-11T19:12:16.087Z,48.14
2022-08-11T19:15:08.523Z,48.58
2022-08-11T19:17:55.105Z,48.99
2022-08-11T19:20:47.846Z,48.98
2022-08-11T19:23:40.916Z,49.10
2022-08-11T19:26:39.559Z,49.46
2022-08-11T19:30:08.018Z,49.68
2022-08-11T19:32:47.887Z,49.43
2022-08-11T19:35:35.846Z,49.72
2022-08-11T19:38:27.455Z,49.84
2022-08-11T19:41:56.329Z,50.01
2022-08-11T19:44:42.317Z,50.25
2022-08-11T19:47:32.888Z,50.10
2022-08-11T19:50:26.574Z,50.64
2022-08-11T19:53:17.144Z,50.64
2022-08-11T19:56:09.679Z,50.67
2022-08-11T19:59:01.270Z,51.17
2022-08-11T20:02:01.354Z,51.04
2022-08-11T20:05:08.392Z,51.60
2022-08-11T20:07:56.387Z,52.35
2022-08-11T20:10:51.090Z,51.79
2022-08-11T20:13:45.810Z,53.40
2022-08-11T20:16:35.261Z,53.57
2022-08-11T20:19:55.738Z,53.89
2022-08-11T20:22:41.447Z,54.57
2022-08-11T20:25:33.066Z,54.91
2022-08-11T20:28:24.930Z,55.31
2022-08-11T20:31:15.528Z,56.27
2022-08-11T20:34:08.987Z,56.49
2022-08-11T20:36:58.201Z,56.95
2022-08-11T20:39:53.069Z,57.33
2022-08-11T20:42:44.656Z,58.78
2022-08-11T20:45:33.929Z,60.90
2022-08-11T20:48:27.460Z,61.66
2022-08-11T20:51:20.174Z,60.94
2022-08-11T20:54:14.236Z,61.57
2022-08-11T20:57:03.309Z,62.25
2022-08-11T21:00:06.448Z,62.43
2022-08-11T21:02:56.719Z,62.97
2022-08-11T21:06:10.237Z,64.12
2022-08-11T21:09:07.320Z,63.51
2022-08-11T21:11:58.414Z,63.89
2022-08-11T21:14:54.660Z,64.69
2022-08-11T21:18:00.543Z,66.11
2022-08-11T21:20:50.455Z,66.94
2022-08-11T21:23:43.146Z,68.38
2022-08-11T21:26:34.717Z,67.97
2022-08-11T21:29:25.808Z,68.02
2022-08-11T21:32:11.739Z,68.98
2022-08-11T21:35:08.875Z,69.47
2022-08-11T21:37:59.427Z,70.30
2022-08-11T21:40:51.170Z,70.01
2022-08-11T21:43:46.351Z,68.64
2022-08-11T21:46:37.788Z,69.35
2022-08-11T21:49:30.466Z,66.79
2022-08-11T21:52:21.428Z,67.67
2022-08-11T21:55:13.544Z,67.41
2022-08-11T21:58:07.831Z,65.83
2022-08-11T22:00:56.801Z,65.46
2022-08-11T22:03:50.752Z,65.65
2022-08-11T22:06:39.853Z,63.90
2022-08-11T22:09:28.527Z,62.06
2022-08-11T22:12:34.185Z,62.46
2022-08-11T22:15:30.669Z,61.52
2022-08-11T22:18:24.696Z,61.08
2022-08-11T22:22:01.486Z,60.15
2022-08-11T22:24:35.051Z,61.73
2022-08-11T22:27:28.527Z,60.66
2022-08-11T22:30:19.592Z,60.50
2022-08-11T22:33:15.197Z,60.57
2022-08-11T22:36:09.932Z,61.26
2022-08-11T22:39:07.385Z,61.60
2022-08-11T22:41:58.742Z,60.83
2022-08-11T22:44:56.662Z,62.07
2022-08-11T22:47:47.338Z,62.45
2022-08-11T22:50:33.395Z,63.53
2022-08-11T22:53:58.453Z,63.33
2022-08-11T22:56:45.748Z,63.58
2022-08-11T22:59:37.497Z,63.27
2022-08-11T23:02:29.998Z,63.23
2022-08-11T23:05:20.046Z,64.99
2022-08-11T23:08:11.045Z,64.92
2022-08-11T23:11:02.958Z,64.87
2022-08-11T23:13:53.718Z,64.94
2022-08-11T23:16:45.314Z,65.73
2022-08-11T23:20:06.636Z,68.25
2022-08-11T23:22:50.783Z,69.77
2022-08-11T23:25:44.020Z,70.64
2022-08-11T23:28:35.478Z,71.94
2022-08-11T23:31:24.978Z,72.47
2022-08-11T23:34:43.494Z,72.57
2022-08-11T23:37:26.743Z,72.37
2022-08-11T23:40:16.202Z,72.02
2022-08-11T23:43:16.296Z,71.97
2022-08-11T23:46:04.790Z,71.78
2022-08-11T23:48:56.751Z,71.50
2022-08-11T23:51:47.351Z,71.73
2022-08-11T23:54:37.438Z,72.97
2022-08-11T23:57:33.456Z,73.43
